Time;durP1;ratioP1;P1;durP2;ratioP2;P2;SDS_P1;SDS_P2;PMS_P1;PMS_P2;Temp;Humidity;BMP_temperature;BMP_pressure;BME280_temperature;BME280_humidity;BME280_pressure;Samples;Min_cycle;Max_cycle;Signal;HPM_P1;HPM_P2
2021/09/04 00:02:00;;;;;;;;;;;20.90;84.70;;;;;;4360140;32;43324;-77
2021/09/04 00:04:28;;;;;;;;;;;20.90;84.70;;;;;;4359624;32;44293;-77
2021/09/04 00:06:55;;;;;;;;;;;20.90;84.80;;;;;;4359621;33;43871;-77
2021/09/04 00:09:25;;;;;;;;;;;20.80;84.70;;;;;;4359819;33;44298;-77
2021/09/04 00:11:52;;;;;;;;;;;20.80;84.70;;;;;;4358618;33;44220;-77
2021/09/04 00:14:19;;;;;;;;;;;20.80;84.70;;;;;;4359085;33;44097;-77
2021/09/04 00:16:46;;;;;;;;;;;20.80;84.80;;;;;;4358979;33;42472;-77
2021/09/04 00:19:13;;;;;;;;;;;20.70;84.90;;;;;;4359664;33;42807;-78
2021/09/04 00:21:41;;;;;;;;;;;20.70;85.00;;;;;;4360131;33;42492;-77
2021/09/04 00:24:08;;;;;;;;;;;20.70;85.00;;;;;;4359575;33;42730;-77
2021/09/04 00:26:35;;;;;;;;;;;20.70;85.20;;;;;;4358574;33;43498;-77
2021/09/04 00:29:02;;;;;;;;;;;20.70;85.30;;;;;;4358540;33;44022;-77
2021/09/04 00:31:29;;;;;;;;;;;20.70;85.50;;;;;;4359765;33;43466;-77
2021/09/04 00:33:56;;;;;;;;;;;20.70;85.70;;;;;;4359904;33;43605;-77
2021/09/04 00:36:26;;;;;;;;;;;20.70;85.70;;;;;;4358363;33;45784;-77
2021/09/04 00:38:53;;;;;;;;;;;20.70;85.70;;;;;;4359608;33;44003;-77
2021/09/04 00:41:21;;;;;;;;;;;20.70;85.90;;;;;;4358278;33;43343;-78
2021/09/04 00:43:49;;;;;;;;;;;20.70;85.90;;;;;;4358593;33;43497;-78
2021/09/04 00:46:16;;;;;;;;;;;20.70;85.90;;;;;;4359399;32;44738;-77
2021/09/04 00:48:43;;;;;;;;;;;20.70;86.00;;;;;;4359255;33;44449;-78
2021/09/04 00:51:15;;;;;;;;;;;20.70;86.10;;;;;;4359802;33;44033;-77
2021/09/04 00:53:43;;;;;;;;;;;20.70;86.20;;;;;;4359358;33;44084;-77
2021/09/04 00:56:12;;;;;;;;;;;20.70;86.20;;;;;;4359688;33;43945;-77
2021/09/04 00:58:40;;;;;;;;;;;20.60;86.20;;;;;;4359229;33;43998;-77
2021/09/04 01:01:07;;;;;;;;;;;20.60;86.20;;;;;;4359720;33;43103;-77
2021/09/04 01:03:34;;;;;;;;;;;20.60;86.20;;;;;;4358943;32;43301;-77
2021/09/04 01:06:04;;;;;;;;;;;20.60;86.20;;;;;;4359279;32;44213;-77
2021/09/04 01:08:31;;;;;;;;;;;20.60;86.20;;;;;;4360320;32;43478;-77
2021/09/04 01:10:58;;;;;;;;;;;20.60;86.20;;;;;;4358708;32;42923;-77
2021/09/04 01:13:25;;;;;;;;;;;20.60;86.30;;;;;;4359656;32;45282;-77
2021/09/04 01:15:55;;;;;;;;;;;20.60;86.30;;;;;;4358228;32;43152;-77
2021/09/04 01:18:23;;;;;;;;;;;20.60;86.30;;;;;;4359842;33;45396;-77
2021/09/04 01:20:50;;;;;;;;;;;20.60;86.30;;;;;;4360120;33;44240;-77
2021/09/04 01:23:17;;;;;;;;;;;20.50;86.40;;;;;;4358744;33;44052;-77
2021/09/04 01:25:50;;;;;;;;;;;20.60;86.50;;;;;;4358421;33;42525;-77
2021/09/04 01:28:17;;;;;;;;;;;20.50;86.50;;;;;;4360050;33;46163;-77
2021/09/04 01:30:45;;;;;;;;;;;20.50;86.50;;;;;;4358790;33;42901;-77
2021/09/04 01:33:12;;;;;;;;;;;20.50;86.50;;;;;;4359452;33;43206;-77
2021/09/04 01:35:39;;;;;;;;;;;20.50;86.50;;;;;;4359682;33;43447;-78
2021/09/04 01:38:07;;;;;;;;;;;20.50;86.50;;;;;;4359802;33;43513;-77
2021/09/04 01:40:34;;;;;;;;;;;20.50;86.50;;;;;;4358927;33;43172;-77
2021/09/04 01:43:01;;;;;;;;;;;20.40;86.50;;;;;;4358881;33;43946;-77
2021/09/04 01:45:28;;;;;;;;;;;20.40;86.60;;;;;;4359310;33;43040;-77
2021/09/04 01:47:55;;;;;;;;;;;20.40;86.60;;;;;;4359669;33;43519;-77
2021/09/04 01:50:22;;;;;;;;;;;20.40;86.60;;;;;;4359374;33;44223;-77
2021/09/04 01:52:49;;;;;;;;;;;20.40;86.60;;;;;;4359219;33;44608;-77
2021/09/04 01:55:17;;;;;;;;;;;20.40;86.80;;;;;;4358701;33;45701;-77
2021/09/04 01:57:44;;;;;;;;;;;20.40;86.80;;;;;;4358301;33;42806;-78
2021/09/04 02:00:13;;;;;;;;;;;20.40;86.80;;;;;;4359619;33;42650;-78
2021/09/04 02:02:40;;;;;;;;;;;20.40;86.80;;;;;;4358328;33;43469;-77
2021/09/04 02:05:09;;;;;;;;;;;20.40;86.80;;;;;;4358478;33;44124;-77
2021/09/04 02:07:38;;;;;;;;;;;20.40;86.80;;;;;;4359684;33;45334;-77
2021/09/04 02:10:06;;;;;;;;;;;20.30;86.80;;;;;;4358155;33;42547;-77
2021/09/04 02:12:33;;;;;;;;;;;20.30;86.80;;;;;;4358120;33;44171;-77
2021/09/04 02:15:00;;;;;;;;;;;20.30;86.90;;;;;;4359632;33;43860;-77
2021/09/04 02:17:28;;;;;;;;;;;20.30;86.90;;;;;;4359330;32;44627;-77
2021/09/04 02:19:58;;;;;;;;;;;20.30;86.90;;;;;;4359784;33;43957;-77
2021/09/04 02:22:25;;;;;;;;;;;20.30;86.90;;;;;;4359505;33;42825;-78
2021/09/04 02:24:52;;;;;;;;;;;20.30;87.00;;;;;;4359692;33;44002;-78
2021/09/04 02:27:19;;;;;;;;;;;20.20;86.80;;;;;;4361047;32;44100;-77
2021/09/04 02:29:46;;;;;;;;;;;20.20;86.90;;;;;;4362297;32;43936;-77
2021/09/04 02:32:13;;;;;;;;;;;20.20;86.80;;;;;;4361760;32;43917;-77
2021/09/04 02:34:40;;;;;;;;;;;20.20;86.90;;;;;;4361243;32;43278;-77
2021/09/04 02:37:07;;;;;;;;;;;20.10;86.70;;;;;;4360576;32;44455;-77
2021/09/04 02:39:34;;;;;;;;;;;20.10;86.90;;;;;;4361609;32;43286;-77
2021/09/04 02:42:04;;;;;;;;;;;20.10;87.10;;;;;;4360683;32;43218;-77
2021/09/04 02:44:31;;;;;;;;;;;20.10;87.10;;;;;;4361604;32;42630;-77
2021/09/04 02:46:59;;;;;;;;;;;20.10;87.10;;;;;;4360469;32;42296;-78
2021/09/04 02:49:26;;;;;;;;;;;20.10;87.20;;;;;;4360699;32;42549;-77
2021/09/04 02:51:53;;;;;;;;;;;20.10;87.20;;;;;;4360466;32;42904;-77
2021/09/04 02:54:20;;;;;;;;;;;20.10;87.10;;;;;;4360354;32;43498;-77
2021/09/04 02:56:47;;;;;;;;;;;20.00;87.20;;;;;;4360916;32;44227;-77
2021/09/04 02:59:14;;;;;;;;;;;20.10;87.20;;;;;;4360423;32;45526;-77
2021/09/04 03:01:42;;;;;;;;;;;20.00;87.00;;;;;;4361348;32;42910;-77
2021/09/04 03:04:09;;;;;;;;;;;20.00;87.70;;;;;;4361630;32;44603;-77
2021/09/04 03:06:36;;;;;;;;;;;20.00;87.00;;;;;;4361190;32;43831;-78
2021/09/04 03:09:04;;;;;;;;;;;20.00;87.00;;;;;;4361597;32;43202;-77
2021/09/04 03:11:31;;;;;;;;;;;19.90;86.90;;;;;;4360261;32;43236;-78
2021/09/04 03:13:58;;;;;;;;;;;19.90;86.80;;;;;;4360683;32;43472;-77
2021/09/04 03:16:28;;;;;;;;;;;19.90;87.00;;;;;;4361094;32;43490;-77
2021/09/04 03:18:55;;;;;;;;;;;19.90;87.10;;;;;;4361594;32;42750;-77
2021/09/04 03:21:22;;;;;;;;;;;19.80;87.20;;;;;;4361418;32;42752;-78
2021/09/04 03:23:50;;;;;;;;;;;19.80;87.10;;;;;;4361201;32;43640;-77
2021/09/04 03:26:17;;;;;;;;;;;19.80;87.10;;;;;;4359811;32;44023;-77
2021/09/04 03:28:44;;;;;;;;;;;19.80;87.10;;;;;;4361194;32;42704;-77
2021/09/04 03:31:12;;;;;;;;;;;19.80;87.10;;;;;;4360415;32;43934;-77
2021/09/04 03:33:39;;;;;;;;;;;19.80;87.10;;;;;;4360044;32;44431;-77
2021/09/04 03:36:06;;;;;;;;;;;19.80;87.10;;;;;;4360967;32;42652;-77
2021/09/04 03:38:33;;;;;;;;;;;19.70;87.10;;;;;;4359257;32;42290;-77
2021/09/04 03:41:01;;;;;;;;;;;19.70;87.30;;;;;;4359752;32;43793;-77
2021/09/04 03:43:28;;;;;;;;;;;19.70;87.10;;;;;;4359936;32;44075;-77
2021/09/04 03:45:55;;;;;;;;;;;19.70;87.20;;;;;;4360722;32;43478;-77
2021/09/04 03:48:22;;;;;;;;;;;19.70;87.40;;;;;;4359719;32;42752;-77
2021/09/04 03:50:49;;;;;;;;;;;19.70;87.40;;;;;;4360627;32;42772;-77
2021/09/04 03:53:16;;;;;;;;;;;19.60;87.20;;;;;;4359705;32;43850;-77
2021/09/04 03:55:47;;;;;;;;;;;19.60;87.30;;;;;;4359685;32;43754;-78
2021/09/04 03:58:14;;;;;;;;;;;19.60;87.30;;;;;;4359746;32;44360;-78
2021/09/04 04:00:42;;;;;;;;;;;19.60;87.30;;;;;;4360534;32;43270;-79
2021/09/04 04:03:09;;;;;;;;;;;19.60;87.50;;;;;;4360546;32;45838;-78
2021/09/04 04:05:39;;;;;;;;;;;19.60;88.30;;;;;;4359916;32;43270;-78
2021/09/04 04:08:07;;;;;;;;;;;19.60;87.50;;;;;;4359657;32;44640;-78
2021/09/04 04:10:34;;;;;;;;;;;19.60;87.50;;;;;;4360396;32;43140;-77
2021/09/04 04:13:01;;;;;;;;;;;19.50;87.50;;;;;;4359318;32;43890;-78
2021/09/04 04:15:28;;;;;;;;;;;19.50;87.50;;;;;;4360812;32;44271;-78
2021/09/04 04:17:55;;;;;;;;;;;19.50;87.60;;;;;;4359670;32;43256;-77
2021/09/04 04:20:22;;;;;;;;;;;19.50;87.60;;;;;;4360685;32;43161;-77
2021/09/04 04:22:49;;;;;;;;;;;19.50;87.60;;;;;;4360692;32;43920;-78
2021/09/04 04:25:16;;;;;;;;;;;19.50;87.60;;;;;;4360506;32;43290;-78
2021/09/04 04:27:44;;;;;;;;;;;19.50;87.40;;;;;;4359082;32;44122;-77
2021/09/04 04:30:11;;;;;;;;;;;19.50;87.40;;;;;;4360522;32;43039;-77
2021/09/04 04:32:38;;;;;;;;;;;19.40;87.40;;;;;;4360621;32;43957;-78
2021/09/04 04:35:09;;;;;;;;;;;19.40;87.50;;;;;;4360610;32;43267;-77
2021/09/04 04:37:37;;;;;;;;;;;19.40;87.60;;;;;;4360234;32;43318;-77
2021/09/04 04:40:04;;;;;;;;;;;19.40;87.70;;;;;;4360407;32;44971;-77
2021/09/04 04:42:31;;;;;;;;;;;19.30;87.80;;;;;;4360339;32;43524;-77
2021/09/04 04:44:58;;;;;;;;;;;19.30;87.80;;;;;;4360349;32;42736;-78
2021/09/04 04:47:26;;;;;;;;;;;19.30;87.70;;;;;;4360320;32;43277;-78
2021/09/04 04:49:53;;;;;;;;;;;19.30;87.70;;;;;;4358803;32;42953;-78
2021/09/04 04:52:20;;;;;;;;;;;19.30;87.70;;;;;;4360199;32;43949;-78
2021/09/04 04:54:47;;;;;;;;;;;19.30;87.80;;;;;;4360296;32;44056;-77
2021/09/04 04:57:15;;;;;;;;;;;19.30;87.80;;;;;;4359263;32;43355;-77
2021/09/04 04:59:42;;;;;;;;;;;19.30;87.80;;;;;;4358672;32;43316;-78
2021/09/04 05:02:09;;;;;;;;;;;19.30;87.90;;;;;;4359693;32;43937;-77
2021/09/04 05:04:39;;;;;;;;;;;19.20;88.00;;;;;;4360211;32;44226;-77
2021/09/04 05:07:09;;;;;;;;;;;19.20;88.80;;;;;;4359174;32;43250;-77
2021/09/04 05:09:36;;;;;;;;;;;19.20;88.10;;;;;;4360217;32;43940;-77
2021/09/04 05:12:03;;;;;;;;;;;19.20;88.20;;;;;;4360093;32;42752;-78
2021/09/04 05:14:30;;;;;;;;;;;19.30;88.30;;;;;;4359843;32;44056;-77
2021/09/04 05:16:58;;;;;;;;;;;19.20;88.20;;;;;;4360126;32;43026;-77
2021/09/04 05:19:30;;;;;;;;;;;19.20;88.10;;;;;;4358506;33;44910;-77
2021/09/04 05:21:57;;;;;;;;;;;19.20;88.00;;;;;;4358895;33;43953;-77
2021/09/04 05:24:24;;;;;;;;;;;19.20;88.00;;;;;;4358503;33;44345;-77
2021/09/04 05:26:52;;;;;;;;;;;19.10;88.10;;;;;;4358398;33;42870;-77
2021/09/04 05:29:19;;;;;;;;;;;19.10;88.20;;;;;;4359760;33;44502;-77
2021/09/04 05:31:46;;;;;;;;;;;19.10;88.30;;;;;;4359841;33;43272;-77
2021/09/04 05:34:13;;;;;;;;;;;19.10;88.40;;;;;;4358917;33;43968;-79
2021/09/04 05:36:40;;;;;;;;;;;19.10;88.40;;;;;;4358784;33;45032;-80
2021/09/04 05:39:07;;;;;;;;;;;19.10;89.10;;;;;;4359924;33;43533;-79
2021/09/04 05:41:37;;;;;;;;;;;19.10;88.50;;;;;;4359427;33;42637;-79
2021/09/04 05:44:04;;;;;;;;;;;19.10;88.50;;;;;;4358588;33;43983;-79
2021/09/04 05:46:31;;;;;;;;;;;19.10;88.70;;;;;;4359959;33;43276;-79
2021/09/04 05:48:59;;;;;;;;;;;19.00;88.70;;;;;;4358802;33;43147;-79
2021/09/04 05:51:28;;;;;;;;;;;19.00;88.70;;;;;;4358631;33;44573;-78
2021/09/04 05:53:55;;;;;;;;;;;19.00;88.70;;;;;;4358615;33;45838;-79
2021/09/04 05:56:25;;;;;;;;;;;19.00;88.80;;;;;;4358598;33;43052;-79
2021/09/04 05:58:52;;;;;;;;;;;19.00;88.90;;;;;;4359275;33;43850;-79
2021/09/04 06:01:20;;;;;;;;;;;19.00;89.00;;;;;;4360149;32;43533;-80
2021/09/04 06:03:47;;;;;;;;;;;19.00;89.00;;;;;;4361660;32;45800;-79
2021/09/04 06:06:18;;;;;;;;;;;19.00;89.00;;;;;;4362467;32;45465;-79
2021/09/04 06:08:45;;;;;;;;;;;19.00;89.10;;;;;;4360991;32;42708;-78
2021/09/04 06:11:12;;;;;;;;;;;19.00;89.10;;;;;;4361084;32;43546;-79
2021/09/04 06:13:39;;;;;;;;;;;19.00;89.30;;;;;;4361559;32;44202;-79
2021/09/04 06:16:06;;;;;;;;;;;19.00;89.30;;;;;;4362027;32;44027;-79
2021/09/04 06:18:33;;;;;;;;;;;19.00;89.50;;;;;;4361320;32;43395;-79
2021/09/04 06:21:01;;;;;;;;;;;19.00;89.50;;;;;;4361868;32;43794;-78
2021/09/04 06:23:28;;;;;;;;;;;19.00;89.50;;;;;;4362001;32;44079;-79
2021/09/04 06:25:58;;;;;;;;;;;19.00;89.50;;;;;;4361941;32;43050;-79
2021/09/04 06:28:25;;;;;;;;;;;18.90;89.50;;;;;;4362524;32;43911;-79
2021/09/04 06:30:52;;;;;;;;;;;18.90;89.60;;;;;;4361851;32;43778;-79
2021/09/04 06:33:19;;;;;;;;;;;18.90;89.70;;;;;;4361784;32;43485;-78
2021/09/04 06:35:49;;;;;;;;;;;18.90;89.70;;;;;;4362162;32;43274;-79
2021/09/04 06:38:17;;;;;;;;;;;18.90;89.80;;;;;;4362253;32;43937;-79
2021/09/04 06:40:44;;;;;;;;;;;18.90;89.80;;;;;;4361658;32;43767;-78
2021/09/04 06:43:11;;;;;;;;;;;18.90;89.90;;;;;;4361846;32;44160;-78
2021/09/04 06:45:38;;;;;;;;;;;18.90;90.00;;;;;;4361566;32;43540;-78
2021/09/04 06:48:08;;;;;;;;;;;18.90;90.10;;;;;;4361518;32;42627;-79
2021/09/04 06:50:35;;;;;;;;;;;18.90;90.10;;;;;;4361918;32;45223;-79
2021/09/04 06:53:03;;;;;;;;;;;18.90;90.20;;;;;;4361632;32;43705;-79
2021/09/04 06:55:30;;;;;;;;;;;18.80;90.20;;;;;;4360387;32;41983;-79
2021/09/04 06:57:57;;;;;;;;;;;18.80;90.20;;;;;;4360625;32;43084;-78
2021/09/04 07:00:24;;;;;;;;;;;18.90;90.30;;;;;;4360673;32;43048;-79
2021/09/04 07:02:51;;;;;;;;;;;18.80;90.30;;;;;;4360187;32;43261;-79
2021/09/04 07:05:22;;;;;;;;;;;18.80;90.30;;;;;;4361467;32;43215;-78
2021/09/04 07:07:49;;;;;;;;;;;18.90;90.40;;;;;;4361773;32;44550;-79
2021/09/04 07:10:16;;;;;;;;;;;18.80;90.40;;;;;;4361738;32;44247;-79
2021/09/04 07:12:44;;;;;;;;;;;18.80;90.50;;;;;;4360567;32;44448;-79
2021/09/04 07:15:11;;;;;;;;;;;18.80;90.50;;;;;;4361659;32;43809;-80
2021/09/04 07:17:38;;;;;;;;;;;18.90;90.60;;;;;;4361192;32;44100;-78
2021/09/04 07:20:06;;;;;;;;;;;18.90;90.60;;;;;;4361043;32;20028;-79
2021/09/04 07:22:34;;;;;;;;;;;18.80;90.60;;;;;;4361038;32;44917;-79
2021/09/04 07:25:01;;;;;;;;;;;18.90;90.60;;;;;;4361372;32;43003;-78
2021/09/04 07:27:28;;;;;;;;;;;18.90;90.60;;;;;;4360966;32;44214;-78
2021/09/04 07:29:55;;;;;;;;;;;18.90;90.60;;;;;;4360136;32;43956;-79
2021/09/04 07:32:23;;;;;;;;;;;18.90;90.70;;;;;;4360252;32;42557;-79
2021/09/04 07:34:50;;;;;;;;;;;18.90;90.70;;;;;;4360425;32;44185;-79
2021/09/04 07:37:20;;;;;;;;;;;18.90;90.70;;;;;;4360426;32;43254;-79
2021/09/04 07:39:47;;;;;;;;;;;18.90;90.80;;;;;;4361136;32;45548;-79
2021/09/04 07:42:14;;;;;;;;;;;18.90;90.70;;;;;;4359808;32;44084;-79
2021/09/04 07:44:41;;;;;;;;;;;19.00;90.80;;;;;;4361214;32;44187;-79
2021/09/04 07:47:08;;;;;;;;;;;19.00;90.80;;;;;;4361254;32;43253;-79
2021/09/04 07:49:36;;;;;;;;;;;19.00;90.80;;;;;;4359686;32;44207;-78
2021/09/04 07:52:06;;;;;;;;;;;19.00;90.90;;;;;;4361059;32;43275;-78
2021/09/04 07:54:33;;;;;;;;;;;19.00;90.90;;;;;;4360940;32;42465;-79
2021/09/04 07:57:00;;;;;;;;;;;19.00;90.90;;;;;;4359421;32;44534;-78
2021/09/04 07:59:28;;;;;;;;;;;19.00;90.90;;;;;;4360965;32;42847;-79
2021/09/04 08:01:58;;;;;;;;;;;19.00;90.90;;;;;;4360476;32;44123;-79
2021/09/04 08:04:25;;;;;;;;;;;19.10;91.00;;;;;;4359833;32;43477;-79
2021/09/04 08:06:52;;;;;;;;;;;19.10;91.00;;;;;;4360995;32;43447;-78
2021/09/04 08:09:22;;;;;;;;;;;19.10;91.00;;;;;;4360716;32;43949;-79
2021/09/04 08:11:49;;;;;;;;;;;19.10;91.00;;;;;;4359696;32;43273;-79
2021/09/04 08:14:18;;;;;;;;;;;19.10;91.10;;;;;;4360425;32;44342;-78
2021/09/04 08:16:48;;;;;;;;;;;19.10;91.10;;;;;;4359997;32;43599;-79
2021/09/04 08:19:16;;;;;;;;;;;19.10;91.10;;;;;;4359729;32;43978;-78
2021/09/04 08:21:43;;;;;;;;;;;19.10;91.10;;;;;;4360802;32;43956;-78
2021/09/04 08:24:10;;;;;;;;;;;19.10;91.10;;;;;;4359178;32;44099;-78
2021/09/04 08:26:38;;;;;;;;;;;19.10;91.20;;;;;;4360619;32;43177;-79
2021/09/04 08:29:05;;;;;;;;;;;19.20;91.20;;;;;;4360200;32;43614;-78
2021/09/04 08:31:32;;;;;;;;;;;19.20;91.20;;;;;;4360627;32;43880;-78
2021/09/04 08:34:08;;;;;;;;;;;19.20;91.20;;;;;;4360085;32;42982;-78
2021/09/04 08:36:35;;;;;;;;;;;19.20;91.20;;;;;;4360114;32;42774;-78
2021/09/04 08:39:02;;;;;;;;;;;19.20;91.30;;;;;;4358966;32;41982;-79
2021/09/04 08:41:29;;;;;;;;;;;19.20;91.30;;;;;;4358892;32;44006;-78
2021/09/04 08:43:57;;;;;;;;;;;19.20;91.30;;;;;;4359950;32;43315;-79
2021/09/04 08:46:28;;;;;;;;;;;19.20;91.30;;;;;;4360171;32;43005;-79
2021/09/04 08:48:55;;;;;;;;;;;19.20;91.30;;;;;;4358667;32;43952;-79
2021/09/04 08:51:22;;;;;;;;;;;19.20;91.30;;;;;;4360233;32;43156;-79
2021/09/04 08:53:49;;;;;;;;;;;19.20;91.30;;;;;;4360398;32;44247;-79
2021/09/04 08:56:16;;;;;;;;;;;19.20;91.30;;;;;;4358890;32;43932;-78
2021/09/04 08:58:43;;;;;;;;;;;19.20;91.30;;;;;;4359807;32;43474;-79
2021/09/04 09:01:15;;;;;;;;;;;19.20;91.30;;;;;;4359797;32;43851;-79
2021/09/04 09:03:43;;;;;;;;;;;19.30;91.40;;;;;;4359269;32;44287;-78
2021/09/04 09:06:36;;;;;;;;;;;19.20;91.30;;;;;;4359234;32;44119;-79
2021/09/04 09:09:18;;;;;;;;;;;19.30;91.40;;;;;;4360282;32;43307;-78
2021/09/04 09:11:50;;;;;;;;;;;19.30;91.40;;;;;;4360264;32;45480;-78
2021/09/04 09:14:17;;;;;;;;;;;19.30;91.40;;;;;;4359704;32;44919;-79
2021/09/04 09:16:49;;;;;;;;;;;19.30;91.40;;;;;;4359022;32;43279;-79
2021/09/04 09:19:17;;;;;;;;;;;19.30;91.40;;;;;;4360318;32;43884;-79
2021/09/04 09:21:44;;;;;;;;;;;19.30;91.40;;;;;;4358916;33;42166;-79
2021/09/04 09:24:12;;;;;;;;;;;19.30;91.40;;;;;;4360082;33;44187;-78
2021/09/04 09:26:56;;;;;;;;;;;19.30;91.50;;;;;;4359908;33;44622;-78
2021/09/04 09:29:24;;;;;;;;;;;19.30;91.50;;;;;;4358308;33;44075;-79
2021/09/04 09:32:06;;;;;;;;;;;19.30;91.50;;;;;;4360042;33;43612;-78
2021/09/04 09:34:37;;;;;;;;;;;19.30;91.50;;;;;;4359488;33;42977;-78
2021/09/04 09:37:05;;;;;;;;;;;19.30;91.50;;;;;;4361372;32;46010;-78
2021/09/04 09:39:36;;;;;;;;;;;19.30;91.50;;;;;;4361868;32;45904;-78
2021/09/04 09:42:04;;;;;;;;;;;19.30;91.50;;;;;;4363016;32;43842;-78
2021/09/04 09:44:35;;;;;;;;;;;19.40;91.60;;;;;;4362123;32;43569;-79
2021/09/04 09:47:10;;;;;;;;;;;19.40;91.60;;;;;;4361684;32;44897;-78
2021/09/04 09:49:38;;;;;;;;;;;19.40;91.60;;;;;;4362811;32;45907;-78
2021/09/04 09:52:08;;;;;;;;;;;19.40;91.60;;;;;;4363238;32;19997;-78
2021/09/04 09:54:35;;;;;;;;;;;19.40;91.60;;;;;;4362235;32;44234;-78
2021/09/04 09:57:04;;;;;;;;;;;19.40;91.60;;;;;;4362315;32;42717;-78
2021/09/04 09:59:31;;;;;;;;;;;19.40;91.60;;;;;;4362365;32;43062;-78
2021/09/04 10:02:01;;;;;;;;;;;19.40;91.60;;;;;;4362411;32;43954;-78
2021/09/04 10:04:33;;;;;;;;;;;19.40;91.60;;;;;;4361219;32;44278;-78
2021/09/04 10:07:01;;;;;;;;;;;19.40;91.60;;;;;;4361495;32;43024;-78
2021/09/04 10:09:31;;;;;;;;;;;19.40;91.60;;;;;;4362154;32;45424;-78
2021/09/04 10:11:59;;;;;;;;;;;19.50;91.70;;;;;;4361324;32;43908;-78
2021/09/04 10:14:26;;;;;;;;;;;19.50;91.70;;;;;;4362532;32;44071;-78
2021/09/04 10:17:00;;;;;;;;;;;19.50;91.70;;;;;;4362342;32;42539;-78
2021/09/04 10:19:29;;;;;;;;;;;19.50;91.70;;;;;;4362442;32;43557;-78
2021/09/04 10:22:00;;;;;;;;;;;19.50;91.70;;;;;;4361128;32;43268;-78
2021/09/04 10:24:42;;;;;;;;;;;19.50;91.70;;;;;;4362046;32;43363;-78
2021/09/04 10:27:12;;;;;;;;;;;19.50;91.80;;;;;;4362173;32;43891;-78
2021/09/04 10:29:41;;;;;;;;;;;19.50;91.70;;;;;;4361875;32;43802;-78
2021/09/04 10:32:08;;;;;;;;;;;19.50;91.80;;;;;;4361473;32;42579;-78
2021/09/04 10:34:39;;;;;;;;;;;19.50;91.80;;;;;;4360764;32;41990;-77
2021/09/04 10:37:06;;;;;;;;;;;19.50;91.80;;;;;;4361933;32;42681;-77
2021/09/04 10:39:48;;;;;;;;;;;19.60;91.80;;;;;;4361689;32;42223;-77
2021/09/04 10:42:18;;;;;;;;;;;19.60;91.90;;;;;;4361671;32;42990;-78
2021/09/04 10:44:47;;;;;;;;;;;19.60;91.80;;;;;;4361992;32;44882;-78
2021/09/04 10:47:15;;;;;;;;;;;19.60;91.90;;;;;;4361271;32;44187;-77
2021/09/04 10:49:44;;;;;;;;;;;19.60;91.90;;;;;;4361817;32;43846;-77
2021/09/04 10:52:13;;;;;;;;;;;19.60;91.90;;;;;;4361959;32;42853;-78
2021/09/04 10:55:00;;;;;;;;;;;19.60;91.90;;;;;;4361024;32;43140;-78
2021/09/04 10:57:43;;;;;;;;;;;19.60;91.90;;;;;;4361004;32;43207;-79
2021/09/04 11:00:17;;;;;;;;;;;19.70;91.90;;;;;;4362083;32;43984;-77
2021/09/04 11:02:48;;;;;;;;;;;19.60;91.90;;;;;;4360427;32;43245;-77
2021/09/04 11:05:34;;;;;;;;;;;19.70;91.90;;;;;;4361786;32;43638;-77
2021/09/04 11:08:04;;;;;;;;;;;19.70;91.90;;;;;;4361906;32;43890;-77
2021/09/04 11:10:32;;;;;;;;;;;19.70;91.90;;;;;;4360248;32;43195;-77
2021/09/04 11:13:11;;;;;;;;;;;19.70;91.90;;;;;;4361515;32;42120;-77
2021/09/04 11:15:38;;;;;;;;;;;19.70;92.00;;;;;;4361608;32;44117;-77
2021/09/04 11:18:09;;;;;;;;;;;19.80;92.00;;;;;;4361135;32;42640;-77
2021/09/04 11:20:43;;;;;;;;;;;19.80;92.00;;;;;;4360125;32;44180;-77
2021/09/04 11:23:10;;;;;;;;;;;19.80;92.00;;;;;;4360779;32;43699;-78
2021/09/04 11:25:43;;;;;;;;;;;19.80;92.00;;;;;;4360624;32;42807;-77
2021/09/04 11:28:12;;;;;;;;;;;19.80;92.00;;;;;;4361467;32;43613;-77
2021/09/04 11:30:49;;;;;;;;;;;19.90;92.00;;;;;;4361374;32;43890;-77
2021/09/04 11:33:16;;;;;;;;;;;19.90;92.00;;;;;;4361124;32;43663;-77
2021/09/04 11:35:47;;;;;;;;;;;19.90;92.00;;;;;;4359778;32;43189;-77
2021/09/04 11:38:15;;;;;;;;;;;19.90;92.00;;;;;;4361354;32;43866;-77
2021/09/04 11:44:36;;;;;;;;;;;20.00;92.00;;;;;;4361442;32;43910;-77
2021/09/04 11:50:27;;;;;;;;;;;20.10;92.10;;;;;;4361127;32;42884;-77
2021/09/04 11:53:11;;;;;;;;;;;20.10;92.10;;;;;;4360139;32;45537;-77
2021/09/04 11:56:09;;;;;;;;;;;20.10;92.10;;;;;;4361305;32;20000;-76
2021/09/04 11:58:44;;;;;;;;;;;20.10;92.10;;;;;;4359880;32;44784;-77
2021/09/04 12:04:54;;;;;;;;;;;20.20;92.10;;;;;;4370612;32;42502;-77
2021/09/04 12:42:47;;;;;;;;;;;20.60;92.20;;;;;;4375645;32;43771;-78
2021/09/04 12:45:18;;;;;;;;;;;20.70;92.20;;;;;;4361667;32;44361;-77
2021/09/04 12:47:47;;;;;;;;;;;20.70;92.20;;;;;;4362011;32;43325;-77
2021/09/04 12:50:22;;;;;;;;;;;20.80;92.30;;;;;;4375242;32;42850;-77
2021/09/04 12:53:05;;;;;;;;;;;20.80;92.30;;;;;;4362154;32;43682;-77
2021/09/04 12:55:53;;;;;;;;;;;20.80;92.30;;;;;;4361490;32;42664;-77
2021/09/04 12:58:20;;;;;;;;;;;20.80;92.30;;;;;;4361397;32;42470;-77
2021/09/04 13:00:48;;;;;;;;;;;20.90;92.30;;;;;;4362371;32;20030;-77
2021/09/04 13:03:15;;;;;;;;;;;20.90;92.60;;;;;;4361180;32;43026;-77
2021/09/04 13:05:42;;;;;;;;;;;21.00;92.30;;;;;;4374580;32;41784;-77
2021/09/04 13:08:10;;;;;;;;;;;21.00;92.30;;;;;;4361809;32;43248;-77
2021/09/04 13:10:41;;;;;;;;;;;21.00;92.20;;;;;;4374847;32;43796;-77
2021/09/04 13:13:08;;;;;;;;;;;21.10;92.30;;;;;;4374550;32;44105;-76
2021/09/04 13:15:38;;;;;;;;;;;21.10;92.20;;;;;;4374596;32;42768;-77
2021/09/04 13:18:05;;;;;;;;;;;21.10;92.20;;;;;;4361764;32;43916;-77
2021/09/04 13:20:32;;;;;;;;;;;21.20;92.20;;;;;;4361261;32;43175;-77
2021/09/04 13:22:59;;;;;;;;;;;21.20;92.20;;;;;;4374992;32;44072;-77
2021/09/04 13:25:26;;;;;;;;;;;21.30;92.20;;;;;;4360842;32;42930;-79
2021/09/04 13:27:53;;;;;;;;;;;21.30;92.20;;;;;;4374476;32;44929;-77
2021/09/04 13:30:20;;;;;;;;;;;21.30;92.20;;;;;;4374454;32;42152;-77
2021/09/04 13:32:47;;;;;;;;;;;21.40;92.20;;;;;;4374665;32;42862;-77
2021/09/04 13:35:15;;;;;;;;;;;21.40;92.20;;;;;;4361010;32;42653;-77
2021/09/04 13:37:46;;;;;;;;;;;21.50;92.20;;;;;;4361266;32;44577;-77
2021/09/04 13:40:14;;;;;;;;;;;21.50;92.10;;;;;;4374893;32;43738;-77
2021/09/04 13:42:41;;;;;;;;;;;21.50;92.10;;;;;;4374951;32;43831;-77
2021/09/04 13:45:11;;;;;;;;;;;21.60;92.10;;;;;;4375013;32;43890;-77
2021/09/04 13:47:41;;;;;;;;;;;21.60;92.00;;;;;;4374946;32;44545;-77
2021/09/04 13:50:08;;;;;;;;;;;21.70;92.00;;;;;;4361172;32;42135;-77
2021/09/04 13:52:37;;;;;;;;;;;21.70;92.00;;;;;;4374343;32;42914;-77
2021/09/04 13:55:05;;;;;;;;;;;21.70;91.90;;;;;;4374377;32;42767;-77
2021/09/04 13:57:33;;;;;;;;;;;21.80;91.90;;;;;;4374481;32;42828;-77
2021/09/04 14:00:00;;;;;;;;;;;21.80;91.90;;;;;;4360808;32;42220;-77
2021/09/04 14:02:27;;;;;;;;;;;21.90;91.90;;;;;;4374824;32;43717;-77
2021/09/04 14:04:55;;;;;;;;;;;21.90;91.90;;;;;;4374551;32;44280;-77
2021/09/04 14:07:22;;;;;;;;;;;21.90;91.90;;;;;;4360830;32;43611;-77
2021/09/04 14:09:51;;;;;;;;;;;22.00;91.80;;;;;;4361247;32;44707;-77
2021/09/04 14:12:18;;;;;;;;;;;22.00;91.80;;;;;;4360878;32;43270;-77
2021/09/04 14:14:48;;;;;;;;;;;22.00;91.70;;;;;;4374369;32;44182;-77
2021/09/04 14:17:15;;;;;;;;;;;22.10;91.70;;;;;;4374664;32;44110;-77
2021/09/04 14:19:42;;;;;;;;;;;22.10;91.70;;;;;;4374550;32;43695;-77
2021/09/04 14:22:15;;;;;;;;;;;22.10;91.60;;;;;;4362231;32;44157;-77
2021/09/04 14:24:45;;;;;;;;;;;22.20;91.70;;;;;;4363525;32;45819;-78
2021/09/04 14:27:12;;;;;;;;;;;22.20;91.60;;;;;;4377402;32;44223;-77
2021/09/04 14:29:42;;;;;;;;;;;22.20;91.60;;;;;;4363676;32;43875;-77
2021/09/04 14:32:10;;;;;;;;;;;22.30;91.60;;;;;;4376854;32;44014;-77
2021/09/04 14:34:37;;;;;;;;;;;22.30;91.50;;;;;;4376750;32;43693;-77
2021/09/04 14:37:04;;;;;;;;;;;22.40;91.50;;;;;;4376789;32;45860;-78
2021/09/04 14:39:31;;;;;;;;;;;22.40;91.50;;;;;;4363701;32;43212;-77
2021/09/04 14:41:58;;;;;;;;;;;22.40;91.40;;;;;;4363165;32;44057;-78
2021/09/04 14:44:25;;;;;;;;;;;22.50;91.40;;;;;;4376903;32;42611;-77
2021/09/04 14:46:52;;;;;;;;;;;22.50;91.40;;;;;;4376428;32;44118;-77
2021/09/04 14:49:22;;;;;;;;;;;22.50;91.30;;;;;;4363431;32;43676;-77
2021/09/04 14:51:49;;;;;;;;;;;22.50;91.20;;;;;;4376570;32;43744;-77
2021/09/04 14:54:16;;;;;;;;;;;22.60;91.20;;;;;;4376401;32;43630;-77
2021/09/04 14:56:45;;;;;;;;;;;22.60;91.20;;;;;;4363309;32;42847;-78
2021/09/04 14:59:15;;;;;;;;;;;22.60;91.10;;;;;;4376780;32;45014;-77
2021/09/04 15:01:42;;;;;;;;;;;22.60;91.10;;;;;;4363687;32;19997;-77
2021/09/04 15:04:12;;;;;;;;;;;22.70;91.10;;;;;;4362987;32;42921;-77
2021/09/04 15:06:42;;;;;;;;;;;22.70;91.00;;;;;;4363274;32;44680;-77
2021/09/04 15:09:13;;;;;;;;;;;22.70;91.00;;;;;;4363356;32;43854;-77
2021/09/04 15:11:40;;;;;;;;;;;22.80;91.00;;;;;;4376731;32;42985;-77